Brownfield, Mississippi
Current Conditions -  °F | °C
As of 8:15 AM on Saturday 01 Nov 2014 (Local Time) from KCRX Reporting Station
Clear Clear  
Wind Chill: 31°   Ceiling: Unl
Heat Index: 36°   Visibility: 10mi
Dew Point: 25°   Wind: 6mph
Humidity: 65%   Direction: 330°NNW
Pressure: 30.33"   Gusts: NA
Location:  34.9572°N, 88.9195°W
Report Text: KCRX 011315Z AUTO 33005KT 10SM CLR 02/M04 A3033 RMK AO2
Loading
Personal Weather Stations






























Interactive Weather Map
Tropical Storm Tracking
New forecast layout! Learn more

10-Day Weather Forecast

Advertisements
Track Severe Weather on mobile